This is the latest recevied weather packets stored in our database for station/object DB0RV-13. If no packets are shown the sender has not sent any weather packets the latest 1 day(s).
| Time | Temp. | Humidity | Pressure | Rain* | Wind** | Luminosity | Snow |
|---|---|---|---|---|---|---|---|
| 1778059803 | 12.22° C | 79% | 1005.6 hPa | - | - | - | - |
| 1778058302 | 12.78° C | 79% | 1006.2 hPa | - | - | - | - |
| 1778057102 | 12.78° C | 77% | 1006.1 hPa | - | - | - | - |
| 1778056502 | 12.78° C | 78% | 1006.1 hPa | - | - | - | - |
| 1778055603 | 12.22° C | 81% | 1005.9 hPa | - | - | - | - |
| 1778055002 | 12.22° C | 81% | 1005.8 hPa | - | - | - | - |
| 1778054402 | 12.22° C | 82% | 1005.9 hPa | - | - | - | - |
| 1778053802 | 11.67° C | 84% | 1006 hPa | - | - | - | - |
| 1778052902 | 10.56° C | 88% | 1006 hPa | - | - | - | - |
| 1778052302 | 10.56° C | 90% | 1006.1 hPa | - | - | - | - |
| 1778051702 | 10° C | 91% | 1006 hPa | - | - | - | - |
| 1778048402 | 9.44° C | 94% | 1006.2 hPa | - | - | - | - |
| 1778047502 | 8.89° C | 95% | 1006.2 hPa | - | - | - | - |
| 1778046902 | 8.33° C | 95% | 1005.9 hPa | - | - | - | - |
| 1778045702 | 8.89° C | 94% | 1006.1 hPa | - | - | - | - |
| 1778044202 | 8.33° C | 96% | 1006.2 hPa | - | - | - | - |
| 1778043901 | 8.33° C | 96% | 1006.3 hPa | - | - | - | - |
| 1778042701 | 8.33° C | 97% | 1006.4 hPa | - | - | - | - |
| 1778041802 | 7.22° C | 97% | 1006.5 hPa | - | - | - | - |
| 1778041202 | 8.33° C | 97% | 1006.7 hPa | - | - | - | - |
| 1778040302 | 8.33° C | 95% | 1006.8 hPa | - | - | - | - |
| 1778039702 | 8.33° C | 93% | 1007 hPa | - | - | - | - |
| 1778037602 | 9.44° C | 92% | 1007.1 hPa | - | - | - | - |
| 1778036702 | 9.44° C | 92% | 1007.4 hPa | - | - | - | - |
| 1778035802 | 9.44° C | 91% | 1007.6 hPa | - | - | - | - |
* Rain since midnight (hover to see other rain measurements)
** Current wind speed in m/s (hover to see current wind gust speed)